Time;durP1;ratioP1;P1;durP2;ratioP2;P2;SDS_P1;SDS_P2;PMS_P1;PMS_P2;Temp;Humidity;BMP_temperature;BMP_pressure;BME280_temperature;BME280_humidity;BME280_pressure;Samples;Min_cycle;Max_cycle;Signal;HPM_P1;HPM_P2
2023/06/14 00:00:00;;;;;;;5.70;3.30;;;;;;;9.73;87.62;95376.55;106539;1277;22538;-72
2023/06/14 00:02:32;;;;;;;4.50;3.00;;;;;;;9.73;87.43;95377.06;106547;1277;22532;-71
2023/06/14 00:05:01;;;;;;;4.80;3.00;;;;;;;9.76;87.51;95371.39;106492;1277;25362;-71
2023/06/14 00:07:38;;;;;;;4.20;2.60;;;;;;;9.72;87.36;95377.45;106494;1277;22528;-71
2023/06/14 00:10:07;;;;;;;7.70;2.90;;;;;;;9.67;87.71;95377.17;106502;1277;23872;-71
2023/06/14 00:12:36;;;;;;;7.50;4.00;;;;;;;9.64;87.38;95379.88;106624;1277;25255;-72
2023/06/14 00:15:06;;;;;;;7.30;3.50;;;;;;;9.59;88.02;95381.05;106599;1276;24281;-72
2023/06/14 00:17:34;;;;;;;6.80;3.30;;;;;;;9.53;88.08;95378.33;106591;1277;25339;-72
2023/06/14 00:20:07;;;;;;;6.40;3.20;;;;;;;9.53;88.21;95372.88;106574;1277;22661;-69
2023/06/14 00:22:37;;;;;;;4.30;2.80;;;;;;;9.49;87.89;95379.27;106488;1277;25407;-72
2023/06/14 00:25:06;;;;;;;9.10;3.40;;;;;;;9.41;87.27;95379.23;106524;1277;25210;-72
2023/06/14 00:27:55;;;;;;;6.10;3.30;;;;;;;9.44;88.01;95380.59;106564;1277;26569;-71
2023/06/14 00:30:25;;;;;;;4.30;3.50;;;;;;;9.40;87.87;95379.25;106531;1277;22519;-72
2023/06/14 00:32:53;;;;;;;7.40;3.60;;;;;;;9.35;87.99;95376.18;106583;1277;22606;-71
2023/06/14 00:35:21;;;;;;;7.60;3.40;;;;;;;9.30;87.96;95380.64;106527;1276;22650;-71
2023/06/14 00:37:50;;;;;;;7.70;3.50;;;;;;;9.26;87.73;95383.00;106510;1277;22887;-72
2023/06/14 00:40:18;;;;;;;5.50;3.20;;;;;;;9.23;87.80;95379.38;106544;1277;22526;-72
2023/06/14 00:42:46;;;;;;;6.40;3.30;;;;;;;9.16;87.83;95382.83;106560;1277;23620;-71
2023/06/14 00:45:15;;;;;;;6.70;3.60;;;;;;;9.11;87.91;95383.08;106516;1277;22513;-72
2023/06/14 00:47:46;;;;;;;4.90;3.50;;;;;;;9.11;88.56;95384.48;106583;1277;25259;-72
2023/06/14 00:50:16;;;;;;;5.10;3.40;;;;;;;9.06;89.05;95381.76;106439;1277;22614;-71
2023/06/14 00:52:45;;;;;;;5.80;3.80;;;;;;;9.01;88.67;95387.09;106456;1277;25306;-72
2023/06/14 00:55:13;;;;;;;5.70;3.50;;;;;;;8.98;87.97;95385.03;106540;1277;22640;-72
2023/06/14 00:57:43;;;;;;;5.40;3.60;;;;;;;8.92;88.01;95383.22;106521;1277;22539;-72
2023/06/14 01:00:14;;;;;;;5.80;3.70;;;;;;;8.84;88.07;95385.59;106553;1277;22635;-71
2023/06/14 01:02:43;;;;;;;5.10;3.40;;;;;;;8.80;88.35;95377.08;106492;1277;22516;-71
2023/06/14 01:05:13;;;;;;;5.00;3.40;;;;;;;8.82;88.93;95377.39;106550;1254;25506;-71
2023/06/14 01:08:24;;;;;;;5.80;3.40;;;;;;;8.82;89.01;95380.19;106577;1277;22656;-71
2023/06/14 01:11:12;;;;;;;6.80;2.60;;;;;;;8.85;88.68;95376.84;106528;1277;25330;-72
2023/06/14 01:13:45;;;;;;;5.80;3.00;;;;;;;8.77;88.05;95385.19;106583;1277;25260;-72
2023/06/14 01:16:15;;;;;;;4.20;3.00;;;;;;;8.74;88.63;95381.38;106549;1277;22511;-72
2023/06/14 01:18:47;;;;;;;5.70;2.60;;;;;;;8.71;88.96;95378.43;106548;1277;25327;-71
2023/06/14 01:21:26;;;;;;;12.20;2.70;;;;;;;8.72;89.01;95381.92;106407;1277;25312;-72
2023/06/14 01:23:54;;;;;;;5.50;3.00;;;;;;;8.74;89.34;95378.55;106540;1254;23279;-71
2023/06/14 01:26:23;;;;;;;6.50;2.60;;;;;;;8.73;88.79;95385.94;106433;1277;22520;-72
2023/06/14 01:28:58;;;;;;;4.80;2.90;;;;;;;8.75;88.75;95386.95;106564;1277;25548;-72
2023/06/14 01:31:27;;;;;;;3.60;2.60;;;;;;;8.72;88.29;95385.61;106541;1273;24303;-72
2023/06/14 01:33:55;;;;;;;3.90;2.90;;;;;;;8.74;88.64;95387.51;106568;1277;24262;-72
2023/06/14 01:36:27;;;;;;;3.90;2.90;;;;;;;8.82;88.76;95385.45;106543;1277;24256;-72
2023/06/14 01:39:00;;;;;;;5.20;2.70;;;;;;;8.80;88.05;95384.27;106572;1277;22613;-72
2023/06/14 01:41:30;;;;;;;8.60;3.20;;;;;;;8.77;87.93;95385.70;106572;1277;24186;-72
2023/06/14 01:43:59;;;;;;;6.30;2.70;;;;;;;8.75;87.83;95389.59;106551;1277;22553;-72
2023/06/14 01:46:27;;;;;;;10.50;2.90;;;;;;;8.74;87.79;95390.86;106570;1277;22544;-72
2023/06/14 01:48:56;;;;;;;6.40;2.70;;;;;;;8.69;87.54;95390.03;106577;1277;22524;-73
2023/06/14 01:51:24;;;;;;;7.00;3.00;;;;;;;8.69;87.62;95391.27;106546;1277;25225;-72
2023/06/14 01:53:53;;;;;;;5.40;2.80;;;;;;;8.60;87.23;95397.19;106425;1277;22555;-72
2023/06/14 01:56:21;;;;;;;5.40;2.80;;;;;;;8.49;87.61;95400.13;106529;1277;22507;-73
2023/06/14 01:58:50;;;;;;;6.90;3.60;;;;;;;8.41;88.08;95402.15;106384;1277;22944;-72
2023/06/14 02:01:18;;;;;;;4.80;3.60;;;;;;;8.39;88.82;95401.82;106403;1277;25263;-72
2023/06/14 02:03:49;;;;;;;4.20;3.20;;;;;;;8.35;87.95;95399.59;106554;1277;25496;-72
2023/06/14 02:06:17;;;;;;;8.90;3.10;;;;;;;8.24;87.86;95401.31;106554;1277;25345;-72
2023/06/14 02:08:45;;;;;;;9.30;4.00;;;;;;;8.15;88.20;95401.95;106560;1277;25267;-72
2023/06/14 02:11:13;;;;;;;7.70;2.90;;;;;;;8.13;88.28;95404.23;106530;1277;24271;-72
2023/06/14 02:13:41;;;;;;;4.50;3.30;;;;;;;8.07;88.81;95404.33;106524;1277;22535;-72
2023/06/14 02:16:10;;;;;;;4.90;3.40;;;;;;;8.03;89.21;95407.16;106403;1256;22527;-72
2023/06/14 02:18:38;;;;;;;4.40;3.40;;;;;;;8.03;89.38;95408.91;106528;1277;24357;-72
2023/06/14 02:21:07;;;;;;;5.80;3.80;;;;;;;8.04;89.33;95412.23;106428;1277;22803;-70
2023/06/14 02:23:35;;;;;;;3.30;2.80;;;;;;;8.03;89.23;95411.55;106527;1277;24269;-72
2023/06/14 02:26:03;;;;;;;6.20;3.30;;;;;;;7.95;89.06;95412.52;106516;1277;22517;-72
2023/06/14 02:28:32;;;;;;;7.40;3.40;;;;;;;7.86;89.31;95415.94;106590;1277;25304;-72
2023/06/14 02:31:00;;;;;;;7.00;3.50;;;;;;;7.82;89.31;95422.29;106452;1277;22546;-72
2023/06/14 02:33:28;;;;;;;6.50;3.30;;;;;;;7.78;88.95;95418.65;106552;1277;25333;-72
2023/06/14 02:35:57;;;;;;;4.50;3.00;;;;;;;7.76;89.45;95421.83;106541;1277;22543;-69
2023/06/14 02:38:25;;;;;;;10.50;3.20;;;;;;;7.75;89.23;95425.34;106510;1277;22654;-72
2023/06/14 02:40:53;;;;;;;6.20;3.00;;;;;;;7.70;89.29;95429.58;106411;1277;24224;-72
2023/06/14 02:43:21;;;;;;;5.70;2.70;;;;;;;7.69;89.50;95424.88;106393;1277;22528;-71
2023/06/14 02:45:50;;;;;;;3.20;2.40;;;;;;;7.74;89.37;95429.02;106553;1277;22568;-72
2023/06/14 02:48:18;;;;;;;3.60;2.20;;;;;;;7.70;88.61;95424.86;106610;1277;22632;-72
2023/06/14 02:50:47;;;;;;;4.70;2.70;;;;;;;7.68;89.05;95428.91;106378;1277;25683;-72
2023/06/14 02:53:16;;;;;;;7.10;2.70;;;;;;;7.67;88.79;95429.63;106372;1277;25346;-72
2023/06/14 02:55:44;;;;;;;4.40;2.70;;;;;;;7.65;89.04;95428.05;106404;1277;22581;-72
2023/06/14 02:58:13;;;;;;;4.00;3.10;;;;;;;7.63;88.73;95428.78;106516;1277;25447;-72
2023/06/14 03:00:42;;;;;;;4.40;2.70;;;;;;;7.58;89.22;95426.73;106457;1277;22604;-72
2023/06/14 03:03:15;;;;;;;3.90;2.70;;;;;;;7.56;89.09;95427.81;106427;1277;22470;-72
2023/06/14 03:05:51;;;;;;;3.90;2.60;;;;;;;7.59;89.70;95426.89;106553;1277;22511;-72
2023/06/14 03:08:27;;;;;;;3.70;2.70;;;;;;;7.65;90.06;95430.52;106498;1277;24060;-72
2023/06/14 03:10:57;;;;;;;6.60;2.70;;;;;;;7.78;90.02;95430.20;106580;1277;22517;-72
2023/06/14 03:13:27;;;;;;;3.20;2.60;;;;;;;7.87;89.42;95432.58;106584;1277;22813;-72
2023/06/14 03:15:56;;;;;;;3.20;2.90;;;;;;;7.91;88.66;95434.11;106574;1277;22524;-72
2023/06/14 03:18:24;;;;;;;3.70;2.90;;;;;;;7.87;88.42;95434.50;106570;1277;25242;-71
2023/06/14 03:20:57;;;;;;;3.50;2.60;;;;;;;7.91;89.04;95433.92;106420;1277;22570;-72
2023/06/14 03:23:27;;;;;;;4.20;2.70;;;;;;;7.94;88.72;95430.57;106512;1277;22517;-71
2023/06/14 03:25:55;;;;;;;2.60;2.40;;;;;;;7.89;88.73;95432.54;106409;1277;22510;-72
2023/06/14 03:28:25;;;;;;;5.60;2.30;;;;;;;7.85;89.09;95431.36;106575;1277;22523;-72
2023/06/14 03:30:54;;;;;;;3.30;2.30;;;;;;;7.85;89.18;95429.78;106591;1277;22515;-72
2023/06/14 03:33:25;;;;;;;3.40;2.30;;;;;;;7.89;88.82;95423.44;106571;1277;25303;-72
2023/06/14 03:35:53;;;;;;;2.60;2.40;;;;;;;7.96;89.36;95426.69;106584;1276;22551;-72
2023/06/14 03:38:22;;;;;;;3.50;2.90;;;;;;;7.97;89.17;95427.55;106685;1265;24264;-72
2023/06/14 03:40:50;;;;;;;3.50;3.00;;;;;;;8.10;89.60;95428.98;106414;1277;22957;-72
2023/06/14 03:43:19;;;;;;;3.50;2.90;;;;;;;8.15;89.24;95424.70;106652;1277;22635;-72
2023/06/14 03:45:47;;;;;;;3.10;2.50;;;;;;;8.20;89.38;95424.83;106527;1277;22519;-71
2023/06/14 03:48:15;;;;;;;4.40;2.90;;;;;;;8.22;89.30;95422.20;106539;1277;24199;-72
2023/06/14 03:50:44;;;;;;;4.30;3.30;;;;;;;8.23;89.63;95424.10;106355;1277;25695;-72
2023/06/14 03:53:13;;;;;;;4.90;3.60;;;;;;;8.32;89.94;95429.95;106446;1277;22518;-72
2023/06/14 03:55:43;;;;;;;4.60;3.90;;;;;;;8.42;89.97;95428.79;106433;1277;25496;-72
2023/06/14 03:58:16;;;;;;;5.60;3.70;;;;;;;8.48;89.47;95423.46;106536;1277;22581;-72
2023/06/14 04:00:45;;;;;;;4.30;3.50;;;;;;;8.52;89.57;95422.02;106534;1277;25275;-72
2023/06/14 04:03:15;;;;;;;4.70;4.00;;;;;;;8.59;89.75;95425.59;106364;1277;22537;-72
2023/06/14 04:05:44;;;;;;;4.00;3.30;;;;;;;8.65;89.73;95424.64;106375;1277;22639;-72
2023/06/14 04:08:14;;;;;;;3.90;3.20;;;;;;;8.69;89.32;95420.20;106626;1277;24414;-72
2023/06/14 04:10:42;;;;;;;3.90;3.30;;;;;;;8.73;89.64;95424.70;106582;1277;22523;-72
2023/06/14 04:13:13;;;;;;;4.20;3.40;;;;;;;8.78;90.54;95420.06;106380;1277;22542;-72
2023/06/14 04:15:45;;;;;;;3.90;3.00;;;;;;;8.82;90.75;95419.13;106394;1277;22596;-72
2023/06/14 04:18:20;;;;;;;3.60;3.30;;;;;;;8.92;90.99;95422.50;106575;1277;25675;-72
2023/06/14 04:20:53;;;;;;;6.90;3.90;;;;;;;9.05;90.87;95421.08;106358;1277;22520;-72
2023/06/14 04:23:21;;;;;;;7.40;3.50;;;;;;;9.19;91.03;95418.23;106367;1277;25327;-72
2023/06/14 04:25:50;;;;;;;7.10;3.20;;;;;;;9.30;90.68;95416.64;106593;1277;24257;-72
2023/06/14 04:28:19;;;;;;;6.60;3.80;;;;;;;9.43;90.53;95417.63;106387;1277;22524;-72
2023/06/14 04:30:48;;;;;;;4.80;3.90;;;;;;;9.56;90.21;95412.67;106620;1277;24267;-72
2023/06/14 04:33:18;;;;;;;10.00;3.50;;;;;;;9.67;89.53;95417.58;106549;1277;22525;-72
2023/06/14 04:35:47;;;;;;;6.00;3.20;;;;;;;9.75;89.04;95420.59;106335;1277;22636;-72
2023/06/14 04:38:18;;;;;;;6.80;3.30;;;;;;;9.85;88.90;95419.02;106588;1277;26520;-73
2023/06/14 04:40:46;;;;;;;5.30;3.50;;;;;;;9.91;88.20;95422.59;106394;1277;24246;-72
2023/06/14 04:43:24;;;;;;;5.30;3.00;;;;;;;10.04;89.12;95422.34;106590;1274;22564;-72
2023/06/14 04:45:54;;;;;;;4.10;3.10;;;;;;;10.29;89.59;95417.46;106601;1277;25391;-73
2023/06/14 04:48:24;;;;;;;8.10;3.40;;;;;;;10.49;89.14;95421.64;106597;1277;22627;-74
2023/06/14 04:50:53;;;;;;;6.00;3.60;;;;;;;10.66;88.78;95424.09;106559;1277;22548;-74
2023/06/14 04:53:22;;;;;;;6.60;2.90;;;;;;;10.80;88.68;95419.74;106397;1277;22524;-73
2023/06/14 04:55:54;;;;;;;6.50;3.20;;;;;;;10.97;87.88;95414.08;106589;1277;25406;-73
2023/06/14 04:58:23;;;;;;;5.70;3.50;;;;;;;11.11;87.71;95412.54;106716;1277;22523;-72
2023/06/14 05:00:53;;;;;;;4.60;3.20;;;;;;;11.22;87.44;95408.21;106571;1277;22650;-77
2023/06/14 05:03:24;;;;;;;8.40;3.50;;;;;;;11.33;86.95;95411.30;106430;1277;22519;-68
2023/06/14 05:05:53;;;;;;;6.50;3.90;;;;;;;11.41;86.83;95409.33;106586;1277;24295;-69
2023/06/14 05:08:24;;;;;;;5.10;3.80;;;;;;;11.55;87.19;95412.00;106519;1277;25380;-70
2023/06/14 05:10:54;;;;;;;5.50;3.70;;;;;;;11.70;86.77;95409.64;106565;1277;22535;-75
2023/06/14 05:13:23;;;;;;;7.70;3.70;;;;;;;11.81;86.45;95409.21;106427;1277;24238;-72
2023/06/14 05:15:53;;;;;;;7.10;4.10;;;;;;;11.89;86.18;95412.36;106495;1277;22803;-68
2023/06/14 05:18:21;;;;;;;16.40;4.00;;;;;;;11.98;86.43;95411.08;106377;1277;24303;-65
2023/06/14 05:20:50;;;;;;;8.10;4.40;;;;;;;12.08;86.76;95403.21;106670;1277;22721;-68
2023/06/14 05:23:18;;;;;;;8.00;4.50;;;;;;;12.19;86.46;95403.97;106743;1269;25357;-68
2023/06/14 05:25:47;;;;;;;9.90;4.50;;;;;;;12.28;86.10;95408.48;106662;1277;22533;-78
2023/06/14 05:28:16;;;;;;;8.60;4.60;;;;;;;12.37;85.80;95405.59;106395;1270;22528;-71
2023/06/14 05:30:44;;;;;;;12.00;4.40;;;;;;;12.43;85.68;95406.98;106597;1276;24755;-73
2023/06/14 05:33:12;;;;;;;7.20;4.40;;;;;;;12.51;85.55;95413.81;106835;1276;22664;-77
2023/06/14 05:35:41;;;;;;;9.40;4.00;;;;;;;12.60;85.46;95416.03;106594;1276;22773;-71
2023/06/14 05:38:09;;;;;;;11.90;4.00;;;;;;;12.68;84.83;95414.89;106574;1276;22664;-72
2023/06/14 05:40:38;;;;;;;11.80;4.50;;;;;;;12.76;85.06;95416.80;106615;1276;22537;-72
2023/06/14 05:43:06;;;;;;;9.70;4.20;;;;;;;12.88;85.07;95417.86;106707;1276;25195;-74
2023/06/14 05:45:34;;;;;;;9.10;4.40;;;;;;;13.03;85.27;95418.44;106748;1276;22527;-74
2023/06/14 05:48:03;;;;;;;15.50;4.70;;;;;;;13.16;84.78;95421.58;106847;1276;25375;-73
2023/06/14 05:50:31;;;;;;;7.80;4.50;;;;;;;13.25;83.98;95423.41;106597;1276;22517;-72
2023/06/14 05:53:00;;;;;;;7.50;4.40;;;;;;;13.35;83.94;95416.25;106590;1276;23885;-70
2023/06/14 05:55:28;;;;;;;8.40;4.30;;;;;;;13.49;84.19;95418.10;106557;1276;22530;-73
2023/06/14 05:57:57;;;;;;;8.10;3.80;;;;;;;13.63;84.05;95420.95;106893;1276;22529;-73
2023/06/14 06:00:25;;;;;;;8.80;4.20;;;;;;;13.79;83.63;95425.38;106811;1276;22540;-70
2023/06/14 06:02:53;;;;;;;7.80;3.80;;;;;;;13.94;83.23;95426.80;106558;1276;25381;-71
2023/06/14 06:05:22;;;;;;;11.80;4.00;;;;;;;14.09;82.33;95422.77;106521;1276;22650;-70
2023/06/14 06:07:51;;;;;;;10.20;3.60;;;;;;;14.25;82.30;95419.73;106475;1276;25198;-71
2023/06/14 06:10:19;;;;;;;8.30;3.30;;;;;;;14.39;80.72;95414.61;106820;1276;25466;-71
2023/06/14 06:12:48;;;;;;;5.30;3.00;;;;;;;14.52;78.87;95416.45;106823;1276;22557;-71
2023/06/14 06:15:16;;;;;;;5.60;3.00;;;;;;;14.64;78.51;95417.63;106885;1276;22524;-75
2023/06/14 06:17:45;;;;;;;6.60;2.80;;;;;;;14.76;77.28;95414.16;106772;1276;25263;-72
2023/06/14 06:20:31;;;;;;;7.80;3.20;;;;;;;14.97;78.30;95414.27;106539;1276;22472;-71
2023/06/14 06:23:00;;;;;;;4.90;3.40;;;;;;;15.13;76.72;95416.48;106834;1276;22520;-69
2023/06/14 06:25:31;;;;;;;4.60;2.90;;;;;;;15.30;77.71;95417.57;106729;1276;22514;-80
2023/06/14 06:28:00;;;;;;;4.90;2.90;;;;;;;15.45;76.47;95418.20;106499;1276;25313;-72
2023/06/14 06:30:28;;;;;;;5.00;3.40;;;;;;;15.58;75.98;95421.92;106727;1276;22517;-74
2023/06/14 06:32:57;;;;;;;6.50;3.00;;;;;;;15.76;75.15;95418.41;106453;1269;22517;-74
2023/06/14 06:35:26;;;;;;;3.90;2.70;;;;;;;15.89;72.70;95417.69;106577;1276;23885;-76
2023/06/14 06:37:55;;;;;;;4.10;3.00;;;;;;;16.00;72.00;95418.08;106522;1276;24423;-76
2023/06/14 06:40:24;;;;;;;5.10;2.90;;;;;;;16.14;71.50;95421.23;106644;1276;22519;-72
2023/06/14 06:42:53;;;;;;;4.20;2.90;;;;;;;16.26;71.97;95420.70;106464;1276;25129;-71
2023/06/14 06:45:23;;;;;;;6.40;3.20;;;;;;;16.36;71.08;95420.94;106547;1276;22513;-69
2023/06/14 06:47:53;;;;;;;6.30;3.10;;;;;;;16.45;70.72;95419.83;106980;1276;25276;-72
2023/06/14 06:50:24;;;;;;;4.00;2.70;;;;;;;16.56;70.17;95422.38;106537;1276;25270;-69
2023/06/14 06:52:53;;;;;;;4.70;2.40;;;;;;;16.59;64.97;95423.68;106586;1276;22539;-71
2023/06/14 06:55:21;;;;;;;3.30;2.50;;;;;;;16.59;65.22;95428.30;106498;1276;25281;-74
2023/06/14 06:57:53;;;;;;;5.10;2.80;;;;;;;16.60;62.40;95431.06;106528;1276;22932;-74
2023/06/14 07:00:22;;;;;;;3.60;2.70;;;;;;;16.71;64.02;95426.84;106532;1276;22517;-69
2023/06/14 07:02:50;;;;;;;4.50;2.30;;;;;;;16.85;64.91;95426.95;106447;1276;25421;-70
2023/06/14 07:05:19;;;;;;;4.40;2.30;;;;;;;16.99;64.62;95429.89;106766;1276;22520;-72
2023/06/14 07:07:48;;;;;;;3.70;2.30;;;;;;;17.11;63.88;95425.77;106491;1276;22682;-71
2023/06/14 07:10:16;;;;;;;3.90;2.00;;;;;;;17.22;63.67;95426.11;106493;1276;23934;-73
2023/06/14 07:12:45;;;;;;;4.20;2.50;;;;;;;17.33;63.38;95419.56;106600;1270;22534;-72
2023/06/14 07:15:13;;;;;;;3.60;2.20;;;;;;;17.45;63.28;95425.36;106707;1276;22524;-73
2023/06/14 07:17:45;;;;;;;3.40;2.30;;;;;;;17.58;63.24;95425.66;106556;1276;24229;-74
2023/06/14 07:20:13;;;;;;;5.80;2.40;;;;;;;17.68;60.52;95427.80;106684;1276;25368;-72
2023/06/14 07:22:43;;;;;;;6.00;2.50;;;;;;;17.77;60.28;95426.51;106843;1276;25220;-73
2023/06/14 07:25:15;;;;;;;4.90;2.90;;;;;;;17.86;60.54;95430.02;106860;1276;22520;-70
2023/06/14 07:27:45;;;;;;;3.30;2.30;;;;;;;17.96;59.31;95432.71;106903;1262;22527;-75
2023/06/14 07:30:13;;;;;;;2.40;2.20;;;;;;;18.05;59.37;95428.34;106862;1276;25451;-69
2023/06/14 07:32:42;;;;;;;3.70;2.10;;;;;;;18.07;57.72;95428.95;106629;1276;22652;-70
2023/06/14 07:35:10;;;;;;;3.20;2.50;;;;;;;18.17;59.06;95433.63;106563;1276;22532;-71
2023/06/14 07:37:39;;;;;;;3.40;2.40;;;;;;;18.21;58.60;95430.21;106571;1276;25221;-74
2023/06/14 07:40:08;;;;;;;3.20;2.40;;;;;;;18.21;58.31;95434.46;106519;1276;22611;-73
2023/06/14 07:42:36;;;;;;;3.30;2.50;;;;;;;18.14;58.07;95432.48;106502;1276;22946;-72
2023/06/14 07:45:05;;;;;;;2.40;2.20;;;;;;;18.16;59.19;95432.58;106563;1276;22525;-76
2023/06/14 07:47:34;;;;;;;2.90;2.50;;;;;;;18.22;58.37;95433.52;106730;1276;24216;-70
2023/06/14 07:50:03;;;;;;;4.70;2.50;;;;;;;18.20;56.53;95436.50;106608;1276;22542;-70
2023/06/14 07:52:33;;;;;;;4.20;2.50;;;;;;;18.22;56.72;95436.55;106697;1276;22545;-72
2023/06/14 07:55:01;;;;;;;5.00;2.70;;;;;;;18.35;57.58;95436.92;106540;1276;22529;-73
2023/06/14 07:57:29;;;;;;;4.70;2.40;;;;;;;18.49;56.61;95437.11;106632;1276;22533;-73
2023/06/14 07:59:58;;;;;;;4.60;2.30;;;;;;;18.67;55.80;95439.23;106669;1276;24228;-71
2023/06/14 08:02:26;;;;;;;3.40;2.30;;;;;;;18.61;55.06;95439.15;107350;1271;23888;-71
2023/06/14 08:04:55;;;;;;;5.10;2.40;;;;;;;18.50;54.37;95440.99;106622;1277;22531;-71
2023/06/14 08:07:23;;;;;;;3.50;2.30;;;;;;;18.33;55.43;95441.52;106572;1277;22540;-71
2023/06/14 08:09:51;;;;;;;4.90;2.40;;;;;;;18.31;55.83;95443.70;106446;1277;22527;-70
2023/06/14 08:12:19;;;;;;;4.90;2.40;;;;;;;18.44;55.81;95442.89;106589;1275;22516;-71
2023/06/14 08:14:47;;;;;;;2.90;2.50;;;;;;;18.59;55.11;95439.63;106682;1275;22572;-71
2023/06/14 08:17:28;;;;;;;2.40;2.20;;;;;;;18.67;54.84;95440.64;106771;1275;24548;-77
2023/06/14 08:19:57;;;;;;;4.50;2.50;;;;;;;18.77;54.51;95444.75;107051;1275;22621;-71
2023/06/14 08:22:27;;;;;;;3.10;2.60;;;;;;;18.68;54.92;95445.74;106983;1275;23895;-72
2023/06/14 08:24:56;;;;;;;3.10;2.40;;;;;;;18.66;55.27;95453.00;107037;1275;24355;-69
2023/06/14 08:27:25;;;;;;;3.00;2.50;;;;;;;18.72;53.73;95451.59;106733;1275;22530;-68
2023/06/14 08:29:56;;;;;;;2.60;2.30;;;;;;;18.68;53.95;95455.34;106642;1275;22649;-68
2023/06/14 08:32:24;;;;;;;3.00;2.50;;;;;;;18.51;54.08;95449.80;106667;1275;24039;-68
2023/06/14 08:34:52;;;;;;;3.30;2.50;;;;;;;18.59;53.70;95444.77;106684;1275;22518;-71
2023/06/14 08:37:33;;;;;;;2.90;2.50;;;;;;;18.82;55.00;95450.37;106699;1275;22510;-71
2023/06/14 08:40:05;;;;;;;2.60;2.30;;;;;;;19.10;55.88;95445.10;106752;1261;22514;-68
2023/06/14 08:42:36;;;;;;;3.20;2.20;;;;;;;19.29;55.20;95445.71;106785;1275;25384;-68
2023/06/14 08:45:05;;;;;;;3.10;2.50;;;;;;;19.40;54.53;95448.12;106711;1275;22663;-73
2023/06/14 08:47:36;;;;;;;3.20;2.70;;;;;;;19.53;53.16;95452.05;106608;1275;25328;-76
2023/06/14 08:50:09;;;;;;;6.50;2.70;;;;;;;19.72;52.29;95451.17;106935;1264;24529;-73
2023/06/14 08:53:01;;;;;;;3.80;2.90;;;;;;;19.96;52.27;95449.09;106717;1275;22528;-74
2023/06/14 08:55:32;;;;;;;3.20;2.80;;;;;;;20.19;52.83;95450.97;106752;1275;22526;-71
2023/06/14 08:58:05;;;;;;;3.70;2.80;;;;;;;20.37;49.93;95442.21;106834;1275;25309;-73
2023/06/14 09:00:37;;;;;;;2.50;2.20;;;;;;;20.56;48.43;95444.10;107065;1275;25331;-73
2023/06/14 09:03:13;;;;;;;2.70;2.40;;;;;;;20.74;49.05;95443.06;106792;1275;25274;-76
2023/06/14 09:05:43;;;;;;;2.50;2.30;;;;;;;20.85;47.93;95448.98;106755;1275;24315;-73
2023/06/14 09:08:12;;;;;;;2.80;2.50;;;;;;;20.94;48.77;95447.17;106669;1275;22729;-73
2023/06/14 09:10:40;;;;;;;3.70;2.60;;;;;;;21.12;49.97;95446.22;106646;1275;23925;-77
2023/06/14 09:13:09;;;;;;;4.90;2.50;;;;;;;21.29;48.11;95443.20;106649;1275;22511;-79
2023/06/14 09:15:37;;;;;;;3.80;2.30;;;;;;;21.38;47.16;95449.07;106664;1275;24220;-74
2023/06/14 09:18:06;;;;;;;3.40;2.40;;;;;;;21.60;47.79;95449.83;106564;1275;24262;-77
2023/06/14 09:20:35;;;;;;;2.50;2.30;;;;;;;21.81;46.52;95452.27;106605;1275;22533;-76
2023/06/14 09:23:05;;;;;;;2.30;2.10;;;;;;;21.92;45.55;95449.38;106522;1275;22632;-77
2023/06/14 09:25:52;;;;;;;2.80;2.40;;;;;;;21.88;43.47;95448.77;106575;1275;24246;-76
2023/06/14 09:28:26;;;;;;;3.30;2.30;;;;;;;21.91;45.06;95453.59;107271;1272;22534;-75
2023/06/14 09:30:54;;;;;;;3.00;2.40;;;;;;;21.82;41.36;95451.30;107931;1275;22530;-75
2023/06/14 09:33:25;;;;;;;3.30;2.50;;;;;;;21.87;42.99;95454.39;107691;1275;22518;-78
2023/06/14 09:35:54;;;;;;;4.10;2.40;;;;;;;21.92;42.90;95455.09;107097;1275;22530;-77
2023/06/14 09:38:24;;;;;;;3.80;2.70;;;;;;;22.01;44.42;95455.75;106957;1275;22527;-76
2023/06/14 09:40:56;;;;;;;3.30;2.40;;;;;;;22.14;43.91;95455.60;106966;1275;24253;-76
2023/06/14 09:43:27;;;;;;;2.40;2.20;;;;;;;22.13;45.02;95456.39;107076;1275;22524;-76
2023/06/14 09:45:55;;;;;;;3.90;2.80;;;;;;;22.22;45.38;95454.73;106814;1275;22535;-76
2023/06/14 09:48:23;;;;;;;3.00;2.60;;;;;;;22.37;45.44;95451.47;106689;1275;22782;-77
2023/06/14 09:50:58;;;;;;;3.20;2.40;;;;;;;22.43;43.92;95452.09;106906;1275;22524;-77
2023/06/14 09:53:28;;;;;;;4.80;2.50;;;;;;;22.54;44.15;95455.71;106625;1275;23704;-76
2023/06/14 09:55:58;;;;;;;3.50;2.70;;;;;;;22.66;44.74;95451.73;106658;1275;24371;-77
2023/06/14 09:58:30;;;;;;;4.70;2.60;;;;;;;22.69;42.39;95448.92;106712;1275;22643;-78
2023/06/14 10:00:59;;;;;;;3.10;2.80;;;;;;;22.76;43.63;95452.20;106711;1275;22674;-77
2023/06/14 10:03:31;;;;;;;3.20;2.80;;;;;;;22.84;44.40;95453.25;106747;1275;22729;-77
2023/06/14 10:06:24;;;;;;;4.20;3.00;;;;;;;22.93;45.27;95448.52;106868;1275;22673;-77
2023/06/14 10:09:01;;;;;;;4.00;3.00;;;;;;;23.07;46.32;95440.73;106725;1275;22492;-77
2023/06/14 10:11:29;;;;;;;3.50;3.10;;;;;;;23.25;46.56;95437.82;106760;1275;23892;-78
2023/06/14 10:13:59;;;;;;;2.70;2.50;;;;;;;23.34;43.10;95443.13;106707;1275;24811;-77
2023/06/14 10:16:46;;;;;;;5.00;2.60;;;;;;;23.32;41.39;95447.04;106669;1275;24208;-78
2023/06/14 10:19:58;;;;;;;2.90;2.60;;;;;;;23.27;41.02;95448.60;106220;1275;673123;-78
2023/06/14 10:22:34;;;;;;;5.50;2.50;;;;;;;23.14;41.62;95451.37;107113;1275;22454;-78
2023/06/14 10:25:11;;;;;;;4.10;2.70;;;;;;;22.81;40.90;95459.04;106755;1275;22532;-78
2023/06/14 10:27:46;;;;;;;5.30;3.00;;;;;;;22.60;42.19;95456.35;106719;1275;22628;-79
2023/06/14 10:30:15;;;;;;;3.70;3.00;;;;;;;22.53;44.05;95452.70;106782;1275;23916;-78
2023/06/14 10:33:04;;;;;;;3.00;2.50;;;;;;;22.75;45.40;95455.47;106757;1275;22544;-78
2023/06/14 10:35:33;;;;;;;4.90;3.30;;;;;;;23.02;44.44;95450.55;106689;1260;22569;-78
2023/06/14 10:38:12;;;;;;;3.10;2.80;;;;;;;23.33;44.36;95450.88;106763;1275;22520;-78
2023/06/14 10:40:41;;;;;;;3.20;2.90;;;;;;;23.57;42.20;95452.05;106668;1275;24222;-77
2023/06/14 10:43:23;;;;;;;4.20;3.10;;;;;;;23.59;43.53;95450.13;106731;1275;25361;-78
2023/06/14 10:46:18;;;;;;;4.40;2.60;;;;;;;23.62;42.49;95451.90;106615;1275;24650;-78
2023/06/14 10:48:46;;;;;;;3.60;2.90;;;;;;;23.42;41.83;95455.66;106750;1275;24231;-77
2023/06/14 10:51:23;;;;;;;3.20;2.90;;;;;;;23.30;42.53;95454.72;106700;1275;25290;-78
2023/06/14 10:53:51;;;;;;;3.00;2.60;;;;;;;23.38;42.20;95453.44;106726;1275;22530;-78
2023/06/14 10:56:30;;;;;;;3.90;3.00;;;;;;;23.53;41.96;95453.92;106684;1275;22521;-77
2023/06/14 10:58:58;;;;;;;5.20;4.40;;;;;;;23.74;43.26;95449.05;106779;1275;25271;-77
2023/06/14 11:01:42;;;;;;;5.70;4.40;;;;;;;23.92;45.29;95449.89;106663;1275;24259;-77
2023/06/14 11:04:11;;;;;;;6.00;4.80;;;;;;;23.98;44.75;95453.06;106595;1276;25211;-78
2023/06/14 11:06:48;;;;;;;5.40;4.50;;;;;;;24.22;45.85;95454.15;106454;1276;22629;-78
2023/06/14 11:09:39;;;;;;;7.10;4.40;;;;;;;24.50;44.44;95454.39;106618;1276;25275;-78
2023/06/14 11:12:11;;;;;;;6.00;4.00;;;;;;;24.50;45.09;95447.58;106591;1276;22511;-78
2023/06/14 11:14:40;;;;;;;7.80;4.60;;;;;;;24.59;43.44;95442.70;106616;1276;22531;-78
2023/06/14 11:17:08;;;;;;;9.60;4.60;;;;;;;24.66;43.21;95438.22;106588;1276;22561;-78
2023/06/14 11:19:36;;;;;;;5.60;4.20;;;;;;;24.64;43.37;95439.11;106637;1276;22624;-78
2023/06/14 11:22:05;;;;;;;5.50;4.40;;;;;;;24.54;43.97;95441.47;106576;1276;22527;-78
2023/06/14 11:24:35;;;;;;;6.40;4.00;;;;;;;24.63;45.34;95442.23;106581;1276;22581;-77
2023/06/14 11:27:06;;;;;;;4.80;4.30;;;;;;;24.73;44.39;95443.30;106563;1276;25271;-78
2023/06/14 11:29:34;;;;;;;4.80;4.20;;;;;;;24.84;43.38;95438.50;106604;1267;22538;-78
2023/06/14 11:32:07;;;;;;;10.70;5.10;;;;;;;24.93;44.86;95437.08;106579;1276;22555;-78
2023/06/14 11:34:35;;;;;;;9.10;5.00;;;;;;;25.01;44.93;95432.81;106594;1276;22527;-78
2023/06/14 11:37:03;;;;;;;5.80;5.10;;;;;;;24.99;44.62;95434.75;106537;1276;22552;-78
2023/06/14 11:39:32;;;;;;;5.40;4.70;;;;;;;24.92;44.05;95439.45;106551;1276;22960;-78
2023/06/14 11:42:01;;;;;;;6.80;5.20;;;;;;;24.68;44.08;95440.45;106545;1276;22524;-78
2023/06/14 11:44:31;;;;;;;5.60;5.10;;;;;;;24.19;44.36;95443.36;106635;1276;24508;-78